createdAt,value
2022-11-09T00:02:02.819Z,21.97
2022-11-09T00:04:07.234Z,21.96
2022-11-09T00:06:11.572Z,21.95
2022-11-09T00:08:15.975Z,21.94
2022-11-09T00:10:20.919Z,21.95
2022-11-09T00:12:25.338Z,21.93
2022-11-09T00:14:29.756Z,21.92
2022-11-09T00:16:34.184Z,21.91
2022-11-09T00:18:38.581Z,21.92
2022-11-09T00:20:47.163Z,21.91
2022-11-09T00:22:52.337Z,21.9
2022-11-09T00:24:56.699Z,21.89
2022-11-09T00:27:01.080Z,21.88
2022-11-09T00:29:05.450Z,21.9
2022-11-09T00:31:09.833Z,21.89
2022-11-09T00:33:14.241Z,21.9
2022-11-09T00:35:18.971Z,21.91
2022-11-09T00:37:23.403Z,21.92
2022-11-09T00:39:28.035Z,21.91
2022-11-09T00:41:32.413Z,21.91
2022-11-09T00:43:36.780Z,21.91
2022-11-09T00:45:41.627Z,21.89
2022-11-09T00:47:46.018Z,21.89
2022-11-09T00:49:50.401Z,21.87
2022-11-09T00:51:54.784Z,21.87
2022-11-09T00:53:59.198Z,21.87
2022-11-09T00:56:03.544Z,21.87
2022-11-09T00:58:07.943Z,21.85
2022-11-09T01:00:12.288Z,21.84
2022-11-09T01:02:16.654Z,21.85
2022-11-09T01:04:21.036Z,21.82
2022-11-09T01:06:25.402Z,21.8
2022-11-09T01:08:30.276Z,21.81
2022-11-09T01:10:34.636Z,21.81
2022-11-09T01:12:39.042Z,21.78
2022-11-09T01:14:43.405Z,21.77
2022-11-09T01:16:47.760Z,21.76
2022-11-09T01:18:52.347Z,21.76
2022-11-09T01:20:56.693Z,21.74
2022-11-09T01:23:01.057Z,21.73
2022-11-09T01:25:05.445Z,21.72
2022-11-09T01:27:09.814Z,21.7
2022-11-09T01:29:14.192Z,21.7
2022-11-09T01:31:18.521Z,21.67
2022-11-09T01:33:22.906Z,21.67
2022-11-09T01:35:27.352Z,21.66
2022-11-09T01:37:31.699Z,21.65
2022-11-09T01:39:36.217Z,21.64
2022-11-09T01:41:40.568Z,21.63
2022-11-09T01:43:44.949Z,21.62
2022-11-09T01:45:49.304Z,21.62
2022-11-09T01:47:53.689Z,21.6
2022-11-09T01:49:58.116Z,21.58
2022-11-09T01:52:02.464Z,21.57
2022-11-09T01:54:06.868Z,21.56
2022-11-09T01:56:11.232Z,21.55
2022-11-09T01:58:15.600Z,21.53
2022-11-09T02:00:20.023Z,21.53
2022-11-09T02:02:24.457Z,21.53
2022-11-09T02:04:28.833Z,21.52
2022-11-09T02:06:33.255Z,21.52
2022-11-09T02:08:37.865Z,21.52
2022-11-09T02:10:42.232Z,21.54
2022-11-09T02:12:46.569Z,21.52
2022-11-09T02:14:50.935Z,21.5
2022-11-09T02:16:55.293Z,21.5
2022-11-09T02:18:59.687Z,21.5
2022-11-09T02:21:04.067Z,21.5
2022-11-09T02:23:08.430Z,21.5
2022-11-09T02:25:12.802Z,21.5
2022-11-09T02:27:17.149Z,21.48
2022-11-09T02:29:21.494Z,21.47
2022-11-09T02:31:25.868Z,21.46
2022-11-09T02:33:30.347Z,21.46
2022-11-09T02:35:34.735Z,21.46
2022-11-09T02:37:39.136Z,21.45
2022-11-09T02:39:43.473Z,21.45
2022-11-09T02:41:47.865Z,21.44
2022-11-09T02:43:52.233Z,21.43
2022-11-09T02:45:56.615Z,21.41
2022-11-09T02:48:00.998Z,21.39
2022-11-09T02:50:05.551Z,21.37
2022-11-09T02:52:09.912Z,21.37
2022-11-09T02:54:14.295Z,21.37
2022-11-09T02:56:18.644Z,21.35
2022-11-09T02:58:23.013Z,21.33
2022-11-09T03:00:27.453Z,21.34
2022-11-09T03:02:31.871Z,21.31
2022-11-09T03:04:36.212Z,21.31
2022-11-09T03:06:40.630Z,21.32
2022-11-09T03:08:45.207Z,21.33
2022-11-09T03:10:49.610Z,21.33
2022-11-09T03:12:53.934Z,21.32
2022-11-09T03:14:58.288Z,21.32
2022-11-09T03:17:02.660Z,21.34
2022-11-09T03:19:07.042Z,21.35
2022-11-09T03:21:11.420Z,21.36
2022-11-09T03:23:15.835Z,21.37
2022-11-09T03:25:21.149Z,21.35
2022-11-09T03:27:25.632Z,21.35
2022-11-09T03:29:29.996Z,21.34
2022-11-09T03:31:34.349Z,21.33
2022-11-09T03:33:38.725Z,21.32
2022-11-09T03:35:43.071Z,21.3
2022-11-09T03:37:47.567Z,21.29
2022-11-09T03:39:52.219Z,21.31
2022-11-09T03:41:56.656Z,21.31
2022-11-09T03:44:01.013Z,21.31
2022-11-09T03:46:05.386Z,21.31
2022-11-09T03:48:09.777Z,21.29
2022-11-09T03:50:14.127Z,21.29
2022-11-09T03:52:18.504Z,21.28
2022-11-09T03:54:22.873Z,21.27
2022-11-09T03:56:27.218Z,21.28
2022-11-09T03:58:31.602Z,21.25
2022-11-09T04:00:35.973Z,21.27
2022-11-09T04:02:40.340Z,21.26
2022-11-09T04:04:44.747Z,21.26
2022-11-09T04:06:49.239Z,21.26
2022-11-09T04:08:53.855Z,21.26
2022-11-09T04:10:58.233Z,21.26
2022-11-09T04:13:02.641Z,21.25
2022-11-09T04:15:07.004Z,21.25
2022-11-09T04:17:11.392Z,21.24
2022-11-09T04:19:15.749Z,21.23
2022-11-09T04:21:23.659Z,21.22
2022-11-09T04:23:28.269Z,21.21
2022-11-09T04:25:32.648Z,21.21
2022-11-09T04:27:37.032Z,21.21
2022-11-09T04:29:41.415Z,21.2
2022-11-09T04:31:45.853Z,21.22
2022-11-09T04:33:50.238Z,21.21
2022-11-09T04:35:54.613Z,21.18
2022-11-09T04:37:59.135Z,21.19
2022-11-09T04:40:03.472Z,21.17
2022-11-09T04:42:07.860Z,21.17
2022-11-09T04:44:12.163Z,21.16
2022-11-09T04:46:16.446Z,21.16
2022-11-09T04:48:20.788Z,21.15
2022-11-09T04:50:25.117Z,21.16
2022-11-09T04:52:29.438Z,21.14
2022-11-09T04:54:33.754Z,21.14
2022-11-09T04:56:38.052Z,21.13
2022-11-09T04:58:42.398Z,21.12
2022-11-09T05:00:46.728Z,21.11
2022-11-09T05:02:51.058Z,21.11
2022-11-09T05:04:55.427Z,21.1
2022-11-09T05:06:59.759Z,21.1
2022-11-09T05:09:04.424Z,21.08
2022-11-09T05:11:08.722Z,21.06
2022-11-09T05:13:13.050Z,21.04
2022-11-09T05:15:17.367Z,21.04
2022-11-09T05:17:21.642Z,21.02
2022-11-09T05:19:25.957Z,21.01
2022-11-09T05:21:30.244Z,21.02
2022-11-09T05:23:34.545Z,21.03
2022-11-09T05:25:38.884Z,21.02
2022-11-09T05:27:43.172Z,21.02
2022-11-09T05:29:47.540Z,21.01
2022-11-09T05:31:52.523Z,21
2022-11-09T05:33:56.960Z,20.98
2022-11-09T05:36:01.277Z,21
2022-11-09T05:38:05.587Z,20.99
2022-11-09T05:40:09.936Z,20.97
2022-11-09T05:42:14.229Z,20.96
2022-11-09T05:44:18.545Z,20.95
2022-11-09T05:46:22.858Z,20.94
2022-11-09T05:48:27.198Z,20.93
2022-11-09T05:50:31.614Z,20.93
2022-11-09T05:52:35.917Z,20.93
2022-11-09T05:54:40.272Z,20.92
2022-11-09T05:56:44.564Z,20.91
2022-11-09T05:58:48.914Z,20.89
2022-11-09T06:00:53.244Z,20.88
2022-11-09T06:02:57.612Z,20.89
2022-11-09T06:05:02.019Z,20.89
2022-11-09T06:07:06.403Z,20.88
2022-11-09T06:09:11.030Z,20.89
2022-11-09T06:11:21.731Z,20.89
2022-11-09T06:13:28.069Z,20.95
2022-11-09T06:15:32.498Z,21.03
2022-11-09T06:17:36.915Z,21.12
2022-11-09T06:19:41.244Z,21.22
2022-11-09T06:21:45.550Z,21.32
2022-11-09T06:23:49.846Z,21.4
2022-11-09T06:25:54.186Z,21.46
2022-11-09T06:27:58.619Z,21.53
2022-11-09T06:30:03.011Z,21.58
2022-11-09T06:32:07.372Z,21.63
2022-11-09T06:34:11.719Z,21.71
2022-11-09T06:36:16.158Z,21.79
2022-11-09T06:38:20.508Z,21.88
2022-11-09T06:40:24.885Z,21.95
2022-11-09T06:42:29.336Z,22.02
2022-11-09T06:44:33.979Z,22.08
2022-11-09T06:46:38.341Z,22.12
2022-11-09T06:48:42.784Z,22.16
2022-11-09T06:50:47.177Z,22.21
2022-11-09T06:52:51.538Z,22.22
2022-11-09T06:54:55.923Z,22.24
2022-11-09T06:57:00.281Z,22.26
2022-11-09T06:59:04.632Z,22.27
2022-11-09T07:01:09.084Z,22.28
2022-11-09T07:03:14.091Z,22.3
2022-11-09T07:05:18.470Z,22.31
2022-11-09T07:07:27.587Z,22.32
2022-11-09T07:09:32.490Z,22.34
2022-11-09T07:11:36.866Z,22.36
2022-11-09T07:13:41.356Z,22.38
2022-11-09T07:15:45.972Z,22.4
2022-11-09T07:17:50.359Z,22.43
2022-11-09T07:19:54.854Z,22.44
2022-11-09T07:21:59.268Z,22.46
2022-11-09T07:24:03.674Z,22.49
2022-11-09T07:26:08.097Z,22.51
2022-11-09T07:28:12.477Z,22.54
2022-11-09T07:30:16.903Z,22.58
2022-11-09T07:32:24.675Z,22.59
2022-11-09T07:35:12.192Z,22.6
2022-11-09T07:37:16.589Z,22.61
2022-11-09T07:39:20.985Z,22.62
2022-11-09T07:41:27.398Z,22.62
2022-11-09T07:43:38.172Z,22.63
2022-11-09T07:45:42.558Z,22.63
2022-11-09T07:47:46.916Z,22.62
2022-11-09T07:49:51.306Z,22.62
2022-11-09T07:51:55.739Z,22.61
2022-11-09T07:54:00.153Z,22.61
2022-11-09T07:56:04.581Z,22.6
2022-11-09T07:58:08.959Z,22.6
2022-11-09T08:00:13.361Z,22.63
2022-11-09T08:02:23.642Z,22.65
2022-11-09T08:04:28.218Z,22.65
2022-11-09T08:06:32.667Z,22.65
2022-11-09T08:08:37.315Z,22.65
2022-11-09T08:10:41.722Z,22.65
2022-11-09T08:12:46.100Z,22.66
2022-11-09T08:14:50.489Z,22.65
2022-11-09T08:16:54.945Z,22.65
2022-11-09T08:18:59.368Z,22.65
2022-11-09T08:21:03.726Z,22.65
2022-11-09T08:23:08.118Z,22.67
2022-11-09T08:25:12.763Z,22.68
2022-11-09T08:27:17.159Z,22.69
2022-11-09T08:29:21.513Z,22.69
2022-11-09T08:31:25.909Z,22.69
2022-11-09T08:33:30.429Z,22.71
2022-11-09T08:35:34.797Z,22.72
2022-11-09T08:37:39.184Z,22.72
2022-11-09T08:39:43.603Z,22.73
2022-11-09T08:41:48.016Z,22.73
2022-11-09T08:43:52.424Z,22.73
2022-11-09T08:45:56.868Z,22.74
2022-11-09T08:48:01.219Z,22.74
2022-11-09T08:50:05.611Z,22.74
2022-11-09T08:52:09.979Z,22.75
2022-11-09T08:54:14.378Z,22.75
2022-11-09T08:56:18.789Z,22.75
2022-11-09T08:58:23.421Z,22.76
2022-11-09T09:00:27.997Z,22.77
2022-11-09T09:02:32.406Z,22.78
2022-11-09T09:04:36.810Z,22.79
2022-11-09T09:06:41.210Z,22.79
2022-11-09T09:08:45.929Z,22.79
2022-11-09T09:10:50.337Z,22.79
2022-11-09T09:12:54.772Z,22.78
2022-11-09T09:14:59.173Z,22.78
2022-11-09T09:17:03.587Z,22.79
2022-11-09T09:19:08.005Z,22.79
2022-11-09T09:21:12.450Z,22.78
2022-11-09T09:23:16.868Z,22.79
2022-11-09T09:25:21.385Z,22.81
2022-11-09T09:27:25.959Z,22.81
2022-11-09T09:29:30.344Z,22.81
2022-11-09T09:31:34.731Z,22.82
2022-11-09T09:33:39.129Z,22.82
2022-11-09T09:35:43.527Z,22.81
2022-11-09T09:37:47.956Z,22.81
2022-11-09T09:39:52.333Z,22.8
2022-11-09T09:41:56.696Z,22.79
2022-11-09T09:44:01.094Z,22.81
2022-11-09T09:46:05.521Z,22.83
2022-11-09T09:48:09.923Z,22.81
2022-11-09T09:50:14.436Z,22.8
2022-11-09T09:52:19.204Z,22.8
2022-11-09T09:54:23.571Z,22.81
2022-11-09T09:56:27.989Z,22.82
2022-11-09T09:58:32.431Z,22.82
2022-11-09T10:00:36.811Z,22.82
2022-11-09T10:02:41.211Z,22.83
2022-11-09T10:04:45.612Z,22.84
2022-11-09T10:06:50.336Z,22.84
2022-11-09T10:08:54.953Z,22.83
2022-11-09T10:10:59.402Z,22.85
2022-11-09T10:13:03.829Z,22.86
2022-11-09T10:15:08.244Z,22.85
2022-11-09T10:17:12.621Z,22.84
2022-11-09T10:19:17.004Z,22.84
2022-11-09T10:21:21.408Z,22.84
2022-11-09T10:23:25.775Z,22.84
2022-11-09T10:25:50.662Z,22.84
2022-11-09T10:28:13.764Z,22.86
2022-11-09T10:30:18.153Z,22.89
2022-11-09T10:32:22.565Z,22.91
2022-11-09T10:34:27.037Z,22.92
2022-11-09T10:36:31.457Z,22.94
2022-11-09T10:38:35.848Z,22.96
2022-11-09T10:40:40.237Z,22.96
2022-11-09T10:42:44.590Z,22.96
2022-11-09T10:44:48.982Z,22.97
2022-11-09T10:46:53.383Z,22.99
2022-11-09T10:48:57.754Z,23.02
2022-11-09T10:51:02.124Z,23.05
2022-11-09T10:53:06.706Z,23.09
2022-11-09T10:55:11.593Z,23.12
2022-11-09T10:57:16.005Z,23.16
2022-11-09T10:59:20.376Z,23.18
2022-11-09T11:01:24.816Z,23.21
2022-11-09T11:03:29.487Z,23.24
2022-11-09T11:05:33.855Z,23.27
2022-11-09T11:07:38.200Z,23.29
2022-11-09T11:09:42.705Z,23.32
2022-11-09T11:11:47.083Z,23.33
2022-11-09T11:13:51.517Z,23.35
2022-11-09T11:15:55.863Z,23.38
2022-11-09T11:18:00.235Z,23.39
2022-11-09T11:20:04.625Z,23.42
2022-11-09T11:22:09.022Z,23.44
2022-11-09T11:24:13.390Z,23.45
2022-11-09T11:26:17.806Z,23.49
2022-11-09T11:28:22.153Z,23.54
2022-11-09T11:30:26.526Z,23.57
2022-11-09T11:32:30.906Z,23.62
2022-11-09T11:34:58.325Z,23.62
2022-11-09T11:37:05.332Z,23.65
2022-11-09T11:39:09.679Z,23.67
2022-11-09T11:41:14.051Z,23.66
2022-11-09T11:43:19.324Z,23.67
2022-11-09T11:45:39.913Z,23.66
2022-11-09T11:47:45.832Z,23.67
2022-11-09T11:49:50.198Z,23.68
2022-11-09T11:51:54.715Z,23.7
2022-11-09T11:53:59.093Z,23.71
2022-11-09T11:56:03.550Z,23.71
2022-11-09T11:58:07.961Z,23.7
2022-11-09T12:00:12.342Z,23.69
2022-11-09T12:02:16.792Z,23.69
2022-11-09T12:04:21.343Z,23.68
2022-11-09T12:06:30.567Z,23.68
2022-11-09T12:08:35.279Z,23.67
2022-11-09T12:10:39.639Z,23.66
2022-11-09T12:12:43.997Z,23.64
2022-11-09T12:14:48.409Z,23.63
2022-11-09T12:16:52.795Z,23.62
2022-11-09T12:18:57.197Z,23.61
2022-11-09T12:21:01.479Z,23.6
2022-11-09T12:23:05.861Z,23.6
2022-11-09T12:25:10.365Z,23.6
2022-11-09T12:27:31.356Z,23.58
2022-11-09T12:29:37.175Z,23.56
2022-11-09T12:31:42.971Z,23.54
2022-11-09T12:33:47.535Z,23.51
2022-11-09T12:35:52.094Z,23.5
2022-11-09T12:37:56.743Z,23.47
2022-11-09T12:40:01.170Z,23.46
2022-11-09T12:42:05.557Z,23.44
2022-11-09T12:44:13.177Z,23.42
2022-11-09T12:46:20.969Z,23.4
2022-11-09T12:48:25.382Z,23.39
2022-11-09T12:50:29.835Z,23.38
2022-11-09T12:52:34.235Z,23.36
2022-11-09T12:54:38.616Z,23.35
2022-11-09T12:56:43.022Z,23.35
2022-11-09T12:58:47.350Z,23.34
2022-11-09T13:00:51.763Z,23.33
2022-11-09T13:02:56.275Z,23.32
2022-11-09T13:05:00.671Z,23.32
2022-11-09T13:07:05.475Z,23.32
2022-11-09T13:09:10.176Z,23.31
2022-11-09T13:11:14.668Z,23.31
2022-11-09T13:13:19.369Z,23.31
2022-11-09T13:15:25.234Z,23.3
2022-11-09T13:17:29.710Z,23.29
2022-11-09T13:19:34.131Z,23.29
2022-11-09T13:21:38.553Z,23.28
2022-11-09T13:26:24.079Z,23.28
2022-11-09T13:28:28.495Z,23.29
2022-11-09T13:30:32.869Z,23.28
2022-11-09T13:32:37.242Z,23.28
2022-11-09T13:34:41.619Z,23.27
2022-11-09T13:36:46.011Z,23.27
2022-11-09T13:38:50.423Z,23.27
2022-11-09T13:40:54.860Z,23.27
2022-11-09T13:42:59.249Z,23.27
2022-11-09T13:45:03.657Z,23.27
2022-11-09T13:47:08.055Z,23.27
2022-11-09T13:49:12.776Z,23.27
2022-11-09T13:51:17.153Z,23.27
2022-11-09T13:53:21.499Z,23.27
2022-11-09T13:55:25.887Z,23.27
2022-11-09T13:57:30.256Z,23.27
2022-11-09T13:59:34.623Z,23.27
2022-11-09T14:01:39.105Z,23.27
2022-11-09T14:03:43.691Z,23.26
2022-11-09T14:05:48.463Z,23.28
2022-11-09T14:07:52.950Z,23.28
2022-11-09T14:09:57.486Z,23.27
2022-11-09T14:12:01.952Z,23.27
2022-11-09T14:14:06.369Z,23.27
2022-11-09T14:16:11.661Z,23.26
2022-11-09T14:18:16.052Z,23.25
2022-11-09T14:20:20.473Z,23.25
2022-11-09T14:22:25.347Z,23.26
2022-11-09T14:24:29.757Z,23.25
2022-11-09T14:26:34.285Z,23.25
2022-11-09T14:28:38.662Z,23.25
2022-11-09T14:30:43.095Z,23.26
2022-11-09T14:32:47.768Z,23.26
2022-11-09T14:34:52.136Z,23.25
2022-11-09T14:36:56.548Z,23.25
2022-11-09T14:39:07.388Z,23.25
2022-11-09T14:41:11.752Z,23.25
2022-11-09T14:43:16.138Z,23.26
2022-11-09T14:48:09.448Z,23.28
2022-11-09T14:50:14.377Z,23.28
2022-11-09T14:52:18.822Z,23.27
2022-11-09T14:54:23.237Z,23.27
2022-11-09T14:56:27.584Z,23.29
2022-11-09T14:58:32.409Z,23.31
2022-11-09T15:00:37.007Z,23.33
2022-11-09T15:02:48.797Z,23.35
2022-11-09T15:04:53.182Z,23.38
2022-11-09T15:06:57.593Z,23.41
2022-11-09T15:09:02.263Z,23.45
2022-11-09T15:11:06.722Z,23.48
2022-11-09T15:13:11.181Z,23.52
2022-11-09T15:15:15.604Z,23.55
2022-11-09T15:17:20.024Z,23.59
2022-11-09T15:19:24.459Z,23.61
2022-11-09T15:21:28.980Z,23.65
2022-11-09T15:23:33.469Z,23.68
2022-11-09T15:25:37.946Z,23.71
2022-11-09T15:27:42.345Z,23.73
2022-11-09T15:29:46.769Z,23.75
2022-11-09T15:31:51.229Z,23.78
2022-11-09T15:33:55.691Z,23.81
2022-11-09T15:36:00.133Z,23.83
2022-11-09T15:38:04.563Z,23.85
2022-11-09T15:40:08.972Z,23.87
2022-11-09T15:42:13.448Z,23.89
2022-11-09T15:44:17.845Z,23.92
2022-11-09T15:46:22.523Z,23.94
2022-11-09T15:48:26.938Z,23.96
2022-11-09T15:50:31.351Z,23.98
2022-11-09T15:52:35.814Z,24
2022-11-09T15:54:44.053Z,24.01
2022-11-09T15:56:50.545Z,24.03
2022-11-09T15:58:54.931Z,24.03
2022-11-09T16:00:59.401Z,24.06
2022-11-09T16:03:03.992Z,24.08
2022-11-09T16:05:08.430Z,24.1
2022-11-09T16:07:13.357Z,24.11
2022-11-09T16:09:18.049Z,24.13
2022-11-09T16:11:22.480Z,24.14
2022-11-09T16:13:26.926Z,24.15
2022-11-09T16:15:31.364Z,24.17
2022-11-09T16:17:35.777Z,24.17
2022-11-09T16:19:40.242Z,24.18
2022-11-09T16:21:44.746Z,24.19
2022-11-09T16:23:49.187Z,24.19
2022-11-09T16:26:01.415Z,24.2
2022-11-09T16:28:05.894Z,24.21
2022-11-09T16:30:10.399Z,24.2
2022-11-09T16:32:14.850Z,24.21
2022-11-09T16:34:19.299Z,24.21
2022-11-09T16:36:23.721Z,24.23
2022-11-09T16:38:28.151Z,24.22
2022-11-09T16:40:32.537Z,24.21
2022-11-09T16:42:37.013Z,24.21
2022-11-09T16:44:41.447Z,24.2
2022-11-09T16:46:45.868Z,24.22
2022-11-09T16:48:50.476Z,24.22
2022-11-09T16:50:54.865Z,24.24
2022-11-09T16:52:59.438Z,24.25
2022-11-09T16:55:03.849Z,24.26
2022-11-09T16:57:08.236Z,24.27
2022-11-09T16:59:12.646Z,24.28
2022-11-09T17:01:20.691Z,24.3
2022-11-09T17:03:27.823Z,24.32
2022-11-09T17:05:32.232Z,24.32
2022-11-09T17:07:41.185Z,24.33
2022-11-09T17:09:46.748Z,24.34
2022-11-09T17:11:51.162Z,24.35
2022-11-09T17:13:55.519Z,24.35
2022-11-09T17:15:59.908Z,24.35
2022-11-09T17:18:04.359Z,24.35
2022-11-09T17:20:08.758Z,24.36
2022-11-09T17:22:13.207Z,24.36
2022-11-09T17:24:17.604Z,24.38
2022-11-09T17:26:22.034Z,24.4
2022-11-09T17:28:26.507Z,24.42
2022-11-09T17:30:30.877Z,24.42
2022-11-09T17:32:35.256Z,24.43
2022-11-09T17:34:39.676Z,24.47
2022-11-09T17:39:18.684Z,24.46
2022-11-09T17:41:23.083Z,24.46
2022-11-09T17:43:27.505Z,24.47
2022-11-09T17:45:31.927Z,24.47
2022-11-09T17:47:36.309Z,24.48
2022-11-09T17:49:40.688Z,24.49
2022-11-09T17:51:45.117Z,24.51
2022-11-09T17:53:49.495Z,24.51
2022-11-09T17:55:53.884Z,24.5
2022-11-09T17:57:58.297Z,24.51
2022-11-09T18:00:02.686Z,24.53
2022-11-09T18:02:07.093Z,24.53
2022-11-09T18:04:11.505Z,24.56
2022-11-09T18:06:16.203Z,24.57
2022-11-09T18:08:20.977Z,24.57
2022-11-09T18:10:26.244Z,24.58
2022-11-09T18:12:30.826Z,24.58
2022-11-09T18:14:35.221Z,24.59
2022-11-09T18:16:39.606Z,24.6
2022-11-09T18:18:44.026Z,24.63
2022-11-09T18:20:48.506Z,24.64
2022-11-09T18:22:52.925Z,24.64
2022-11-09T18:24:57.339Z,24.66
2022-11-09T18:27:01.715Z,24.67
2022-11-09T18:29:06.087Z,24.69
2022-11-09T18:31:10.475Z,24.71
2022-11-09T18:33:15.029Z,24.7
2022-11-09T18:35:19.436Z,24.71
2022-11-09T18:37:23.824Z,24.71
2022-11-09T18:39:28.276Z,24.72
2022-11-09T18:41:32.659Z,24.73
2022-11-09T18:43:37.072Z,24.67
2022-11-09T18:45:41.522Z,24.57
2022-11-09T18:47:45.961Z,24.47
2022-11-09T18:49:50.421Z,24.36
2022-11-09T18:51:55.030Z,24.25
2022-11-09T18:53:59.424Z,24.16
2022-11-09T18:56:06.694Z,24.07
2022-11-09T18:58:11.368Z,24.01
2022-11-09T19:00:15.789Z,23.98
2022-11-09T19:02:20.217Z,23.94
2022-11-09T19:04:24.618Z,23.9
2022-11-09T19:06:29.063Z,23.89
2022-11-09T19:08:33.729Z,23.85
2022-11-09T19:10:38.184Z,23.87
2022-11-09T19:12:42.625Z,23.92
2022-11-09T19:14:47.035Z,23.99
2022-11-09T19:16:51.498Z,24.05
2022-11-09T19:18:55.920Z,24.12
2022-11-09T19:21:00.391Z,24.19
2022-11-09T19:23:04.824Z,24.25
2022-11-09T19:25:09.236Z,24.3
2022-11-09T19:27:13.710Z,24.34
2022-11-09T19:29:18.102Z,24.35
2022-11-09T19:31:22.545Z,24.39
2022-11-09T19:33:26.959Z,24.41
2022-11-09T19:35:33.901Z,24.42
2022-11-09T19:37:38.657Z,24.44
2022-11-09T19:39:43.532Z,24.46
2022-11-09T19:41:48.100Z,24.47
2022-11-09T19:43:52.483Z,24.49
2022-11-09T19:45:57.315Z,24.52
2022-11-09T19:48:01.725Z,24.54
2022-11-09T19:50:06.175Z,24.55
2022-11-09T19:52:10.643Z,24.56
2022-11-09T19:54:15.034Z,24.59
2022-11-09T19:56:19.490Z,24.6
2022-11-09T19:58:24.070Z,24.64
2022-11-09T20:00:28.632Z,24.66
2022-11-09T20:02:33.053Z,24.7
2022-11-09T20:04:37.461Z,24.71
2022-11-09T20:06:41.946Z,24.74
2022-11-09T20:08:46.526Z,24.75
2022-11-09T20:10:50.967Z,24.76
2022-11-09T20:12:55.403Z,24.77
2022-11-09T20:14:59.839Z,24.77
2022-11-09T20:17:04.244Z,24.78
2022-11-09T20:19:08.763Z,24.75
2022-11-09T20:21:13.159Z,24.74
2022-11-09T20:23:21.498Z,24.71
2022-11-09T20:25:26.163Z,24.69
2022-11-09T20:27:32.263Z,24.67
2022-11-09T20:29:37.026Z,24.66
2022-11-09T20:31:41.439Z,24.65
2022-11-09T20:33:45.812Z,24.64
2022-11-09T20:35:50.176Z,24.64
2022-11-09T20:37:54.679Z,24.64
2022-11-09T20:39:59.083Z,24.64
2022-11-09T20:42:03.489Z,24.64
2022-11-09T20:44:07.928Z,24.65
2022-11-09T20:46:12.329Z,24.65
2022-11-09T20:48:38.494Z,24.65
2022-11-09T20:50:58.582Z,24.67
2022-11-09T20:53:02.975Z,24.68
2022-11-09T20:55:07.332Z,24.71
2022-11-09T20:57:11.710Z,24.72
2022-11-09T20:59:16.129Z,24.74
2022-11-09T21:01:20.611Z,24.74
2022-11-09T21:03:25.255Z,24.74
2022-11-09T21:05:29.651Z,24.74
2022-11-09T21:07:34.039Z,24.74
2022-11-09T21:09:38.419Z,24.74
2022-11-09T21:11:42.796Z,24.73
2022-11-09T21:13:47.182Z,24.72
2022-11-09T21:15:51.595Z,24.65
2022-11-09T21:17:55.987Z,24.6
2022-11-09T21:20:00.549Z,24.54
2022-11-09T21:22:04.928Z,24.47
2022-11-09T21:24:09.342Z,24.42
2022-11-09T21:26:13.754Z,24.35
2022-11-09T21:28:18.321Z,24.26
2022-11-09T21:30:23.796Z,24.19
2022-11-09T21:32:28.206Z,24.14
2022-11-09T21:34:36.447Z,24.09
2022-11-09T21:36:41.237Z,24.06
2022-11-09T21:38:45.611Z,24.02
2022-11-09T21:40:50.021Z,23.99
2022-11-09T21:42:54.409Z,23.96
2022-11-09T21:44:58.766Z,23.93
2022-11-09T21:47:03.143Z,23.91
2022-11-09T21:49:07.540Z,23.86
2022-11-09T21:51:11.907Z,23.85
2022-11-09T21:53:16.323Z,23.83
2022-11-09T21:55:21.062Z,23.81
2022-11-09T21:57:25.416Z,23.78
2022-11-09T21:59:29.855Z,23.77
2022-11-09T22:01:34.372Z,23.76
2022-11-09T22:03:39.089Z,23.74
2022-11-09T22:05:43.461Z,23.72
2022-11-09T22:07:47.878Z,23.68
2022-11-09T22:10:09.199Z,23.66
2022-11-09T22:12:15.125Z,23.65
2022-11-09T22:14:19.641Z,23.63
2022-11-09T22:16:24.022Z,23.62
2022-11-09T22:18:28.425Z,23.62
2022-11-09T22:20:32.891Z,23.6
2022-11-09T22:22:37.278Z,23.6
2022-11-09T22:24:41.730Z,23.57
2022-11-09T22:26:46.139Z,23.56
2022-11-09T22:28:50.559Z,23.55
2022-11-09T22:30:54.921Z,23.51
2022-11-09T22:32:59.373Z,23.5
2022-11-09T22:35:03.778Z,23.49
2022-11-09T22:37:08.222Z,23.48
2022-11-09T22:39:12.635Z,23.44
2022-11-09T22:41:17.007Z,23.44
2022-11-09T22:43:21.791Z,23.41
2022-11-09T22:45:27.317Z,23.39
2022-11-09T22:47:31.685Z,23.38
2022-11-09T22:49:36.203Z,23.37
2022-11-09T22:51:40.681Z,23.35
2022-11-09T22:53:45.176Z,23.34
2022-11-09T22:55:49.738Z,23.34
2022-11-09T22:57:54.145Z,23.33
2022-11-09T22:59:58.543Z,23.33
2022-11-09T23:02:03.071Z,23.32
2022-11-09T23:04:07.489Z,23.3
2022-11-09T23:06:11.880Z,23.28
2022-11-09T23:08:16.308Z,23.26
2022-11-09T23:10:20.708Z,23.25
2022-11-09T23:12:25.238Z,23.24
2022-11-09T23:14:29.617Z,23.23
2022-11-09T23:16:34.041Z,23.22
2022-11-09T23:18:38.550Z,23.21
2022-11-09T23:20:42.976Z,23.22
2022-11-09T23:22:47.445Z,23.22
2022-11-09T23:24:51.854Z,23.19
2022-11-09T23:26:56.229Z,23.18
2022-11-09T23:29:00.774Z,23.17
2022-11-09T23:31:05.228Z,23.17
2022-11-09T23:33:09.647Z,23.13
2022-11-09T23:35:14.037Z,23.12
2022-11-09T23:37:18.451Z,23.11
2022-11-09T23:39:22.834Z,23.1
2022-11-09T23:41:27.259Z,23.09
2022-11-09T23:43:33.531Z,23.09
2022-11-09T23:45:37.988Z,23.08
2022-11-09T23:47:42.413Z,23.09
2022-11-09T23:49:46.851Z,23.06
2022-11-09T23:51:51.280Z,23.06
2022-11-09T23:53:55.635Z,23.05
2022-11-09T23:56:00.200Z,23.06
2022-11-09T23:58:04.553Z,23.05
